Time;durP1;ratioP1;P1;durP2;ratioP2;P2;SDS_P1;SDS_P2;PMS_P1;PMS_P2;Temp;Humidity;BMP_temperature;BMP_pressure;BME280_temperature;BME280_humidity;BME280_pressure;Samples;Min_cycle;Max_cycle;Signal;HPM_P1;HPM_P2
2021/08/22 00:01:33;;;;;;;8.88;5.53;;;20.00;99.90;;;;;;5053681;28;20032;-45
2021/08/22 00:03:59;;;;;;;10.13;5.30;;;20.00;99.90;;;;;;5053698;28;20029;-46
2021/08/22 00:06:24;;;;;;;8.98;6.07;;;20.00;99.90;;;;;;5053396;28;20025;-47
2021/08/22 00:08:50;;;;;;;10.38;5.80;;;19.90;99.90;;;;;;5053231;28;20029;-45
2021/08/22 00:11:15;;;;;;;7.82;6.07;;;19.90;99.90;;;;;;5053096;28;20139;-45
2021/08/22 00:13:41;;;;;;;10.88;5.93;;;19.90;99.90;;;;;;5053503;28;20028;-47
2021/08/22 00:16:06;;;;;;;12.25;6.53;;;19.90;99.90;;;;;;5053624;28;20021;-47
2021/08/22 00:18:32;;;;;;;11.93;5.95;;;19.90;99.90;;;;;;5053161;28;20033;-46
2021/08/22 00:20:57;;;;;;;16.77;7.07;;;19.90;99.90;;;;;;5053400;28;20089;-46
2021/08/22 00:23:23;;;;;;;7.53;6.03;;;19.90;99.90;;;;;;5053255;28;20028;-48
2021/08/22 00:25:49;;;;;;;10.55;6.78;;;19.80;99.90;;;;;;5053117;28;20064;-45
2021/08/22 00:28:15;;;;;;;9.25;5.72;;;19.60;99.90;;;;;;5052628;28;20061;-48
2021/08/22 00:30:40;;;;;;;9.73;5.88;;;19.60;99.90;;;;;;5052014;28;20035;-49
2021/08/22 00:33:06;;;;;;;10.23;6.15;;;19.40;99.90;;;;;;5053183;28;20057;-47
2021/08/22 00:35:31;;;;;;;6.43;5.70;;;19.40;99.90;;;;;;5053198;28;20048;-46
2021/08/22 00:37:57;;;;;;;8.57;5.53;;;19.40;99.90;;;;;;5052454;28;20029;-44
2021/08/22 00:40:23;;;;;;;6.35;5.75;;;19.50;99.90;;;;;;5052898;28;20595;-43
2021/08/22 00:42:49;;;;;;;8.98;6.03;;;19.50;99.90;;;;;;5052914;28;20051;-48
2021/08/22 00:45:15;;;;;;;7.95;5.65;;;19.60;99.90;;;;;;5052993;28;20037;-45
2021/08/22 00:47:43;;;;;;;8.48;6.18;;;19.50;99.90;;;;;;5052446;28;20411;-49
2021/08/22 00:50:18;;;;;;;9.80;5.85;;;19.50;99.90;;;;;;5052753;28;20475;-46
2021/08/22 00:52:44;;;;;;;6.70;5.63;;;19.60;99.90;;;;;;5052969;28;20411;-45
2021/08/22 00:55:10;;;;;;;7.95;6.72;;;19.60;99.90;;;;;;5052766;28;20028;-47
2021/08/22 00:57:36;;;;;;;7.50;6.53;;;19.60;99.90;;;;;;5052559;28;20112;-43
2021/08/22 01:00:13;;;;;;;7.07;5.55;;;19.60;99.90;;;;;;5052884;28;20028;-42
2021/08/22 01:02:45;;;;;;;6.40;5.50;;;19.50;99.90;;;;;;5053262;28;20492;-46
2021/08/22 01:05:39;;;;;;;10.02;5.82;;;19.40;99.90;;;;;;5052500;28;20075;-47
2021/08/22 01:08:23;;;;;;;8.95;5.97;;;19.50;99.90;;;;;;5052182;28;20056;-42
2021/08/22 01:10:54;;;;;;;6.57;5.22;;;19.40;99.90;;;;;;5052746;28;20107;-48
2021/08/22 01:13:23;;;;;;;7.45;5.50;;;19.40;99.90;;;;;;5053196;28;20017;-46
2021/08/22 01:15:53;;;;;;;6.38;5.40;;;19.30;99.90;;;;;;5052521;28;20017;-48
2021/08/22 01:18:21;;;;;;;7.80;5.03;;;19.30;99.90;;;;;;5052525;28;20013;-45
2021/08/22 01:21:08;;;;;;;7.55;6.05;;;19.30;99.90;;;;;;5052626;28;20053;-47
2021/08/22 01:23:44;;;;;;;10.88;5.10;;;19.30;99.90;;;;;;5052220;28;20029;-44
2021/08/22 01:26:11;;;;;;;6.93;4.97;;;19.30;99.90;;;;;;5052330;28;20021;-44
2021/08/22 01:28:39;;;;;;;6.57;5.15;;;19.30;99.90;;;;;;5052057;28;20473;-44
2021/08/22 01:31:08;;;;;;;5.78;5.15;;;19.30;99.90;;;;;;5052423;28;20393;-43
2021/08/22 01:33:34;;;;;;;9.32;5.47;;;19.20;99.90;;;;;;5052092;28;20025;-48
2021/08/22 01:36:00;;;;;;;5.43;4.70;;;19.30;99.90;;;;;;5052405;28;20023;-47
2021/08/22 01:38:27;;;;;;;7.28;5.90;;;19.20;99.90;;;;;;5051855;28;20020;-48
2021/08/22 01:40:53;;;;;;;7.60;5.57;;;19.10;99.90;;;;;;5051910;28;20126;-47
2021/08/22 01:43:20;;;;;;;5.45;4.80;;;19.10;99.90;;;;;;5052363;28;20108;-48
2021/08/22 01:45:45;;;;;;;5.18;4.68;;;19.10;99.90;;;;;;5050947;28;20099;-46
2021/08/22 01:48:14;;;;;;;6.30;4.57;;;19.10;99.90;;;;;;5051525;28;20306;-46
2021/08/22 01:50:40;;;;;;;6.63;4.38;;;19.20;99.90;;;;;;5050468;28;20028;-47
2021/08/22 01:53:08;;;;;;;5.30;4.55;;;19.10;99.90;;;;;;5051755;28;20025;-46
2021/08/22 01:55:34;;;;;;;8.43;4.55;;;19.10;99.90;;;;;;5051602;28;20029;-46
2021/08/22 01:57:59;;;;;;;4.85;4.25;;;19.10;99.90;;;;;;5051340;28;20383;-44
2021/08/22 02:00:25;;;;;;;5.22;4.32;;;19.10;99.90;;;;;;5051689;28;20035;-47
2021/08/22 02:03:04;;;;;;;6.03;4.50;;;19.10;99.90;;;;;;5051632;28;20032;-45
2021/08/22 02:05:33;;;;;;;5.10;4.03;;;19.10;99.90;;;;;;5051671;28;20025;-45
2021/08/22 02:08:00;;;;;;;5.72;4.35;;;19.00;99.90;;;;;;5050752;28;20029;-42
2021/08/22 02:10:31;;;;;;;6.38;4.32;;;19.00;99.90;;;;;;5051378;28;20021;-46
2021/08/22 02:12:59;;;;;;;5.28;4.78;;;19.00;99.90;;;;;;5051379;28;20021;-46
2021/08/22 02:15:32;;;;;;;5.47;4.68;;;19.00;99.90;;;;;;5051247;28;20047;-47
2021/08/22 02:17:59;;;;;;;4.68;4.13;;;18.90;99.90;;;;;;5050909;28;20021;-46
2021/08/22 02:20:26;;;;;;;8.30;4.22;;;18.90;99.90;;;;;;5051150;28;20025;-44
2021/08/22 02:22:53;;;;;;;5.68;4.28;;;18.90;99.90;;;;;;5050441;28;20064;-45
2021/08/22 02:25:20;;;;;;;7.38;5.13;;;18.90;99.90;;;;;;5051029;28;20029;-47
2021/08/22 02:27:46;;;;;;;7.35;4.40;;;18.90;99.90;;;;;;5050727;28;20044;-44
2021/08/22 02:30:12;;;;;;;4.72;4.20;;;18.90;99.90;;;;;;5051112;28;20544;-46
2021/08/22 02:32:38;;;;;;;10.82;5.20;;;18.80;99.90;;;;;;5050991;28;20074;-49
2021/08/22 02:35:04;;;;;;;5.47;4.75;;;18.80;99.90;;;;;;5050878;28;20033;-47
2021/08/22 02:37:30;;;;;;;7.00;5.00;;;18.80;99.90;;;;;;5050515;28;20057;-44
2021/08/22 02:39:56;;;;;;;6.25;4.32;;;18.80;99.90;;;;;;5050858;28;20474;-45
2021/08/22 02:42:22;;;;;;;8.85;4.78;;;18.80;99.90;;;;;;5050805;28;20028;-43
2021/08/22 02:44:47;;;;;;;8.38;4.95;;;18.80;99.90;;;;;;5050821;28;20032;-46
2021/08/22 02:47:14;;;;;;;6.93;5.00;;;18.70;99.90;;;;;;5050502;28;20049;-45
2021/08/22 02:49:40;;;;;;;5.60;4.53;;;18.70;99.90;;;;;;5050534;28;20028;-43
2021/08/22 02:52:06;;;;;;;5.32;4.55;;;18.80;99.90;;;;;;5050662;28;20386;-47
2021/08/22 02:54:31;;;;;;;6.95;5.00;;;18.70;99.90;;;;;;5050670;28;20032;-47
2021/08/22 02:56:57;;;;;;;7.88;4.40;;;18.80;99.90;;;;;;5050670;28;20025;-44
2021/08/22 02:59:22;;;;;;;6.78;4.82;;;18.80;99.90;;;;;;5050333;28;20033;-48
2021/08/22 03:01:48;;;;;;;6.05;4.60;;;18.70;99.90;;;;;;5050543;28;20498;-44
2021/08/22 03:04:13;;;;;;;6.63;4.55;;;18.70;99.90;;;;;;5050439;28;20029;-44
2021/08/22 03:06:39;;;;;;;6.57;4.63;;;18.80;99.90;;;;;;5050531;28;20715;-44
2021/08/22 03:09:04;;;;;;;5.10;4.60;;;18.80;99.90;;;;;;5050018;28;20029;-45
2021/08/22 03:11:33;;;;;;;4.53;3.85;;;18.70;99.90;;;;;;5050258;28;20028;-45
2021/08/22 03:13:59;;;;;;;5.18;3.72;;;18.70;99.90;;;;;;5050804;28;20035;-48
2021/08/22 03:16:25;;;;;;;8.50;4.50;;;18.70;99.90;;;;;;5050378;28;20100;-44
2021/08/22 03:18:50;;;;;;;5.95;3.75;;;18.70;99.90;;;;;;5050145;28;20025;-44
2021/08/22 03:21:16;;;;;;;5.97;3.70;;;18.70;99.90;;;;;;5050403;28;20044;-50
2021/08/22 03:23:42;;;;;;;7.05;3.85;;;18.70;99.90;;;;;;5050511;28;20037;-43
2021/08/22 03:26:07;;;;;;;5.03;3.97;;;18.70;99.90;;;;;;5050463;28;20028;-47
2021/08/22 03:28:33;;;;;;;6.43;3.97;;;18.70;99.90;;;;;;5050377;28;20040;-48
2021/08/22 03:30:59;;;;;;;6.97;3.83;;;18.60;99.90;;;;;;5050313;28;20029;-47
2021/08/22 03:33:25;;;;;;;9.38;4.18;;;18.60;99.90;;;;;;5051915;28;20021;-46
2021/08/22 03:35:50;;;;;;;7.55;3.90;;;18.60;99.90;;;;;;5054349;28;20051;-49
2021/08/22 03:38:16;;;;;;;5.18;4.07;;;18.60;99.90;;;;;;5053838;28;20032;-46
2021/08/22 03:40:41;;;;;;;4.85;3.63;;;18.50;99.90;;;;;;5054423;28;20025;-46
2021/08/22 03:43:07;;;;;;;5.95;4.65;;;18.50;99.90;;;;;;5054244;28;20087;-47
2021/08/22 03:45:32;;;;;;;5.78;4.65;;;18.50;99.90;;;;;;5054261;28;20044;-47
2021/08/22 03:47:58;;;;;;;7.82;4.50;;;18.50;99.90;;;;;;5053645;28;20040;-44
2021/08/22 03:50:24;;;;;;;7.93;4.10;;;18.50;99.90;;;;;;5054025;28;20061;-46
2021/08/22 03:52:51;;;;;;;4.40;4.00;;;18.40;99.90;;;;;;5054027;28;20413;-46
2021/08/22 03:55:20;;;;;;;6.50;4.53;;;18.40;99.90;;;;;;5054078;28;20029;-48
2021/08/22 03:57:46;;;;;;;5.72;4.45;;;18.30;99.90;;;;;;5053714;28;20024;-46
2021/08/22 04:00:13;;;;;;;10.68;4.75;;;18.30;99.90;;;;;;5053974;28;20108;-44
2021/08/22 04:02:39;;;;;;;6.47;4.13;;;18.30;99.90;;;;;;5053750;28;20075;-44
2021/08/22 04:05:07;;;;;;;5.78;4.07;;;18.20;99.90;;;;;;5052640;28;20021;-45
2021/08/22 04:07:33;;;;;;;5.85;4.07;;;18.20;99.90;;;;;;5053607;28;20333;-44
2021/08/22 04:09:59;;;;;;;6.18;4.18;;;18.20;99.90;;;;;;5053423;28;20499;-44
2021/08/22 04:12:24;;;;;;;5.82;4.40;;;18.20;99.90;;;;;;5053404;28;20029;-47
2021/08/22 04:14:50;;;;;;;6.05;5.28;;;18.20;99.90;;;;;;5053622;28;20056;-48
2021/08/22 04:17:15;;;;;;;8.57;4.68;;;18.20;99.90;;;;;;5051966;28;20083;-48
2021/08/22 04:19:41;;;;;;;6.95;4.85;;;18.20;99.90;;;;;;5053501;28;20116;-48
2021/08/22 04:22:08;;;;;;;6.63;5.15;;;18.20;99.90;;;;;;5052296;28;20394;-44
2021/08/22 04:24:35;;;;;;;5.10;4.60;;;18.30;99.90;;;;;;5053450;28;20509;-45
2021/08/22 04:27:02;;;;;;;7.35;4.90;;;18.30;99.90;;;;;;5053431;28;20033;-47
2021/08/22 04:29:29;;;;;;;5.45;4.93;;;18.30;99.90;;;;;;5053088;28;20560;-46
2021/08/22 04:31:54;;;;;;;6.28;4.80;;;18.30;99.90;;;;;;5053326;28;20033;-45
2021/08/22 04:34:20;;;;;;;6.65;4.75;;;16.40;99.90;;;;;;5053363;28;20032;-43
2021/08/22 04:36:48;;;;;;;7.28;4.88;;;18.30;99.90;;;;;;5053196;28;20491;-46
2021/08/22 04:39:15;;;;;;;6.95;4.70;;;18.20;99.90;;;;;;5053178;28;20035;-46
2021/08/22 04:41:44;;;;;;;9.57;4.90;;;18.30;99.90;;;;;;5053558;28;20021;-44
2021/08/22 04:44:11;;;;;;;9.30;5.63;;;18.20;99.90;;;;;;5052882;28;20024;-49
2021/08/22 04:46:36;;;;;;;7.35;4.97;;;18.20;99.90;;;;;;5052637;28;20037;-46
2021/08/22 04:49:02;;;;;;;8.60;5.55;;;18.20;99.90;;;;;;5052855;28;20544;-48
2021/08/22 04:51:27;;;;;;;8.43;5.78;;;18.20;99.90;;;;;;5053036;28;20037;-45
2021/08/22 04:53:53;;;;;;;9.82;5.70;;;18.30;99.90;;;;;;5054416;28;20488;-45
2021/08/22 04:56:18;;;;;;;9.38;5.20;;;18.30;99.90;;;;;;5052996;28;20087;-48
2021/08/22 04:58:44;;;;;;;11.77;6.22;;;18.30;99.90;;;;;;5052713;28;20029;-45
2021/08/22 05:01:09;;;;;;;6.05;4.50;;;18.30;99.90;;;;;;5052803;28;20021;-45
2021/08/22 05:03:35;;;;;;;7.82;5.70;;;18.30;99.90;;;;;;5053259;28;20532;-46
2021/08/22 05:06:00;;;;;;;7.25;5.47;;;18.30;99.90;;;;;;5052666;28;20021;-46
2021/08/22 05:08:26;;;;;;;6.20;5.10;;;18.30;99.90;;;;;;5052181;28;20035;-47
2021/08/22 05:10:54;;;;;;;12.32;5.88;;;18.30;99.90;;;;;;5052617;28;20103;-44
2021/08/22 05:13:20;;;;;;;9.60;5.53;;;18.30;99.90;;;;;;5052245;28;20044;-43
2021/08/22 05:15:46;;;;;;;6.78;6.07;;;18.30;99.90;;;;;;5052590;28;20462;-43
2021/08/22 05:18:12;;;;;;;12.55;5.57;;;18.30;99.90;;;;;;5052312;28;20036;-45
2021/08/22 05:20:37;;;;;;;8.38;5.45;;;18.30;99.90;;;;;;5052366;28;20500;-46
2021/08/22 05:23:03;;;;;;;6.15;5.18;;;18.30;99.90;;;;;;5052533;28;20053;-44
2021/08/22 05:25:28;;;;;;;6.00;5.40;;;18.30;99.90;;;;;;5052313;28;20040;-46
2021/08/22 05:27:54;;;;;;;7.28;5.88;;;18.40;99.90;;;;;;5050575;28;20235;-46
2021/08/22 05:30:19;;;;;;;5.40;4.70;;;18.50;99.90;;;;;;5052270;28;20028;-44
2021/08/22 05:32:45;;;;;;;12.40;5.60;;;18.50;99.90;;;;;;5052289;28;20028;-44
2021/08/22 05:35:10;;;;;;;6.53;5.65;;;18.60;99.90;;;;;;5052215;28;20068;-46
2021/08/22 05:37:36;;;;;;;7.53;5.95;;;18.70;99.90;;;;;;5051840;28;20494;-44
2021/08/22 05:40:02;;;;;;;7.75;5.28;;;18.80;99.90;;;;;;5052198;28;20106;-45
2021/08/22 05:42:27;;;;;;;9.98;5.63;;;18.90;99.90;;;;;;5051895;28;20110;-44
2021/08/22 05:44:53;;;;;;;7.47;5.68;;;18.90;99.90;;;;;;5050709;28;20021;-43
2021/08/22 05:47:20;;;;;;;11.27;6.43;;;19.00;99.90;;;;;;5051729;28;20090;-43
2021/08/22 05:49:47;;;;;;;11.70;6.55;;;19.00;99.90;;;;;;5051709;28;20028;-47
2021/08/22 05:52:13;;;;;;;8.82;6.38;;;19.00;99.90;;;;;;5051899;28;20025;-46
2021/08/22 05:54:39;;;;;;;9.15;6.03;;;18.90;99.90;;;;;;5051913;28;20079;-46
2021/08/22 05:57:04;;;;;;;8.68;6.75;;;19.00;99.90;;;;;;5051502;28;20029;-45
2021/08/22 05:59:30;;;;;;;10.43;6.63;;;19.10;99.90;;;;;;5051505;28;20111;-44
2021/08/22 06:01:55;;;;;;;7.07;6.22;;;19.00;99.90;;;;;;5051880;28;20021;-45
2021/08/22 06:04:21;;;;;;;12.63;6.22;;;19.10;99.90;;;;;;5051525;28;20033;-46
2021/08/22 06:06:46;;;;;;;9.93;6.53;;;19.20;99.90;;;;;;5051603;28;20032;-45
2021/08/22 06:09:12;;;;;;;7.63;6.28;;;19.20;99.90;;;;;;5051188;28;20079;-43
2021/08/22 06:11:37;;;;;;;10.63;7.20;;;19.20;99.90;;;;;;5051688;28;20112;-44
2021/08/22 06:14:03;;;;;;;8.18;6.85;;;19.30;99.90;;;;;;5051951;28;20059;-47
2021/08/22 06:16:29;;;;;;;9.93;6.88;;;19.30;99.90;;;;;;5051734;28;20040;-44
2021/08/22 06:18:54;;;;;;;12.40;7.47;;;19.40;99.90;;;;;;5051442;28;20461;-46
2021/08/22 06:21:20;;;;;;;11.35;6.30;;;19.50;99.90;;;;;;5051417;28;20283;-48
2021/08/22 06:23:46;;;;;;;12.43;7.25;;;19.50;99.90;;;;;;5051294;28;20150;-45
2021/08/22 06:26:11;;;;;;;9.00;6.18;;;19.50;99.90;;;;;;5051171;28;20389;-44
2021/08/22 06:28:37;;;;;;;12.48;7.35;;;19.60;99.90;;;;;;5051218;28;20314;-46
2021/08/22 06:31:02;;;;;;;12.60;7.20;;;19.70;99.90;;;;;;5051351;28;20025;-45
2021/08/22 06:33:28;;;;;;;8.20;7.18;;;19.70;99.90;;;;;;5051538;28;20061;-46
2021/08/22 06:36:02;;;;;;;14.77;7.18;;;19.80;99.90;;;;;;5051335;28;20033;-42
2021/08/22 06:38:28;;;;;;;11.73;7.07;;;19.80;99.90;;;;;;5051007;28;20031;-46
2021/08/22 06:40:53;;;;;;;7.78;6.85;;;19.90;99.90;;;;;;5050928;28;20115;-44
2021/08/22 06:43:19;;;;;;;10.45;7.18;;;19.90;99.90;;;;;;5050830;28;20033;-45
2021/08/22 06:45:44;;;;;;;7.90;7.03;;;20.00;99.90;;;;;;5050837;28;20021;-47
2021/08/22 06:48:11;;;;;;;10.68;7.85;;;20.10;99.90;;;;;;5050557;28;20033;-45
2021/08/22 06:50:38;;;;;;;10.13;6.70;;;20.30;99.90;;;;;;5050795;28;20062;-45
2021/08/22 06:53:03;;;;;;;10.65;7.30;;;20.50;99.90;;;;;;5050890;28;20025;-48
2021/08/22 06:55:29;;;;;;;12.60;7.70;;;20.50;99.90;;;;;;5050673;28;20036;-44
2021/08/22 06:57:54;;;;;;;8.57;7.03;;;20.60;99.90;;;;;;5050302;28;20071;-46
2021/08/22 07:00:20;;;;;;;12.68;6.82;;;20.70;99.90;;;;;;5050702;28;20045;-43
2021/08/22 07:02:45;;;;;;;13.00;7.05;;;20.80;99.90;;;;;;5050501;28;20479;-45
2021/08/22 07:05:12;;;;;;;7.80;7.00;;;20.80;99.90;;;;;;5050957;28;20036;-44
2021/08/22 07:07:37;;;;;;;8.95;6.70;;;20.80;99.90;;;;;;5050355;28;20025;-44
2021/08/22 07:10:03;;;;;;;8.18;7.15;;;20.80;99.90;;;;;;5050210;28;20458;-43
2021/08/22 07:12:29;;;;;;;9.30;6.60;;;20.80;99.90;;;;;;5050115;28;20386;-44
2021/08/22 07:14:54;;;;;;;7.75;6.50;;;20.80;99.90;;;;;;5050410;28;20025;-45
2021/08/22 07:17:21;;;;;;;8.13;6.55;;;20.80;99.90;;;;;;5050206;28;20056;-44
2021/08/22 07:19:48;;;;;;;8.00;6.40;;;20.90;99.90;;;;;;5050471;28;20021;-44
2021/08/22 07:22:14;;;;;;;10.40;6.10;;;20.90;99.90;;;;;;5050405;28;20029;-44
2021/08/22 07:24:39;;;;;;;7.60;6.32;;;20.90;99.90;;;;;;5050498;28;20039;-47
2021/08/22 07:27:05;;;;;;;7.93;6.97;;;20.80;99.90;;;;;;5050746;28;20394;-45
2021/08/22 07:29:30;;;;;;;8.55;6.68;;;20.80;99.90;;;;;;5050189;28;20024;-43
2021/08/22 07:31:56;;;;;;;9.77;7.80;;;20.80;99.90;;;;;;5050365;28;20017;-47
2021/08/22 07:34:21;;;;;;;11.45;6.80;;;20.80;99.90;;;;;;5050496;28;20095;-45
2021/08/22 07:36:47;;;;;;;9.75;7.03;;;20.60;99.90;;;;;;5048971;28;20421;-45
2021/08/22 07:39:13;;;;;;;8.10;7.05;;;20.60;99.90;;;;;;5049922;28;20037;-44
2021/08/22 07:41:38;;;;;;;9.27;6.97;;;20.60;99.90;;;;;;5050432;28;20029;-45
2021/08/22 07:44:04;;;;;;;8.18;7.32;;;20.50;99.90;;;;;;5050287;28;20434;-43
2021/08/22 07:46:31;;;;;;;12.82;7.18;;;20.40;99.90;;;;;;5050143;28;20072;-44
2021/08/22 07:48:56;;;;;;;12.35;7.13;;;20.40;99.90;;;;;;5049853;28;20025;-43
2021/08/22 07:51:22;;;;;;;8.82;7.28;;;20.40;99.90;;;;;;5050272;28;20497;-47
2021/08/22 07:53:48;;;;;;;9.40;7.15;;;20.40;99.90;;;;;;5050227;28;20071;-44
2021/08/22 07:56:13;;;;;;;8.48;6.80;;;20.40;99.90;;;;;;5050012;28;20024;-41
2021/08/22 07:58:39;;;;;;;8.50;6.95;;;20.40;99.90;;;;;;5049879;28;20029;-44
2021/08/22 08:01:04;;;;;;;7.70;6.90;;;20.40;99.90;;;;;;5050010;28;20144;-44
2021/08/22 08:03:30;;;;;;;10.38;6.72;;;20.40;99.90;;;;;;5049891;28;20087;-45
2021/08/22 08:05:56;;;;;;;8.82;6.65;;;20.40;99.90;;;;;;5049884;28;20078;-46
2021/08/22 08:08:22;;;;;;;6.82;6.20;;;20.40;99.90;;;;;;5049248;28;20029;-45
2021/08/22 08:10:48;;;;;;;13.07;6.82;;;20.40;99.90;;;;;;5049870;28;20013;-44
2021/08/22 08:13:13;;;;;;;9.20;5.63;;;20.50;99.90;;;;;;5049811;28;20036;-47
2021/08/22 08:15:39;;;;;;;7.07;5.38;;;20.50;99.90;;;;;;5049779;28;20064;-47
2021/08/22 08:18:04;;;;;;;5.95;5.35;;;20.50;99.90;;;;;;5049606;28;20033;-46
2021/08/22 08:20:30;;;;;;;7.45;5.72;;;20.60;99.90;;;;;;5051191;28;20029;-46
2021/08/22 08:22:55;;;;;;;7.93;5.82;;;20.60;99.90;;;;;;5053456;28;20029;-48
2021/08/22 08:25:21;;;;;;;8.13;5.55;;;20.50;99.90;;;;;;5053495;28;20029;-48
2021/08/22 08:27:48;;;;;;;6.13;4.78;;;20.60;99.90;;;;;;5052958;28;20017;-45
2021/08/22 08:30:13;;;;;;;5.60;5.10;;;20.60;99.90;;;;;;5053309;28;20334;-44
2021/08/22 08:32:39;;;;;;;6.97;5.20;;;20.70;99.90;;;;;;5053256;28;20057;-44
2021/08/22 08:35:07;;;;;;;5.53;4.80;;;20.70;99.90;;;;;;5051906;28;20387;-45
2021/08/22 08:37:32;;;;;;;5.15;4.65;;;20.80;99.90;;;;;;5052748;28;20532;-44
2021/08/22 08:39:58;;;;;;;7.32;4.05;;;20.90;99.90;;;;;;5053068;28;20060;-43
2021/08/22 08:42:29;;;;;;;6.78;5.03;;;20.90;99.90;;;;;;5052910;28;20033;-43
2021/08/22 08:44:56;;;;;;;7.40;5.47;;;20.90;99.90;;;;;;5053038;28;20029;-45
2021/08/22 08:47:24;;;;;;;6.80;5.03;;;21.00;99.90;;;;;;5052683;28;20460;-46
2021/08/22 08:50:04;;;;;;;5.38;4.88;;;21.10;99.90;;;;;;5051644;28;20041;-47
2021/08/22 08:52:46;;;;;;;6.30;4.60;;;21.00;99.90;;;;;;5053055;28;20025;-46
2021/08/22 08:55:37;;;;;;;4.72;4.28;;;20.90;99.90;;;;;;5052749;28;20021;-45
2021/08/22 08:58:03;;;;;;;6.30;4.10;;;20.90;99.90;;;;;;5052235;28;20076;-47
2021/08/22 09:00:36;;;;;;;8.75;4.55;;;20.90;99.90;;;;;;5052691;28;20463;-48
2021/08/22 09:03:02;;;;;;;5.03;4.55;;;20.90;99.90;;;;;;5052952;28;20071;-48
2021/08/22 09:05:52;;;;;;;4.93;3.83;;;21.00;99.90;;;;;;5052659;28;20025;-48
2021/08/22 09:08:29;;;;;;;6.85;4.68;;;20.90;99.90;;;;;;5051589;28;20501;-47
2021/08/22 09:11:32;;;;;;;5.60;4.40;;;20.90;99.90;;;;;;5052127;28;20036;-50
2021/08/22 09:14:30;;;;;;;6.78;4.47;;;21.00;99.90;;;;;;5052379;28;20104;-46
2021/08/22 09:17:13;;;;;;;6.13;4.13;;;21.00;99.90;;;;;;5052417;28;20025;-49
2021/08/22 09:20:17;;;;;;;7.18;4.20;;;21.00;99.90;;;;;;5050449;28;20029;-45
2021/08/22 09:23:10;;;;;;;6.43;4.72;;;21.00;99.90;;;;;;5052336;28;20025;-45
2021/08/22 09:26:13;;;;;;;4.80;4.30;;;21.00;99.90;;;;;;5052309;28;20028;-49
2021/08/22 09:29:16;;;;;;;4.50;4.10;;;21.00;99.90;;;;;;5051812;28;20024;-51
2021/08/22 09:32:18;;;;;;;4.85;3.90;;;21.00;99.90;;;;;;5051669;28;20021;-51
2021/08/22 09:35:05;;;;;;;4.88;3.72;;;21.00;99.90;;;;;;5051966;28;20021;-47
2021/08/22 09:38:08;;;;;;;5.05;3.83;;;21.00;99.90;;;;;;5051736;28;20390;-49
2021/08/22 09:40:58;;;;;;;4.95;4.07;;;20.90;99.90;;;;;;5052057;28;20124;-50
2021/08/22 09:44:01;;;;;;;7.15;3.88;;;20.90;99.90;;;;;;5051839;28;20048;-52
2021/08/22 09:46:45;;;;;;;5.78;4.22;;;20.90;99.90;;;;;;5051597;28;20037;-47
2021/08/22 09:49:28;;;;;;;8.23;4.40;;;20.90;99.90;;;;;;5051398;28;20029;-46
2021/08/22 09:52:35;;;;;;;4.55;4.00;;;20.90;99.90;;;;;;5050085;28;20115;-48
2021/08/22 09:55:03;;;;;;;6.32;4.22;;;20.90;99.90;;;;;;5050120;28;20549;-49
2021/08/22 09:57:51;;;;;;;5.30;4.80;;;20.90;99.90;;;;;;5051662;28;20482;-49
2021/08/22 10:00:28;;;;;;;5.53;4.78;;;20.90;99.90;;;;;;5051295;28;20032;-46
2021/08/22 10:03:16;;;;;;;5.28;4.60;;;20.90;99.90;;;;;;5051516;28;20025;-47
2021/08/22 10:06:06;;;;;;;6.50;5.20;;;20.80;99.90;;;;;;5051641;28;20017;-50
2021/08/22 10:08:56;;;;;;;6.97;5.47;;;20.90;99.90;;;;;;5049687;28;20056;-47
2021/08/22 10:11:34;;;;;;;5.70;5.07;;;21.00;99.90;;;;;;5051469;28;20035;-47
2021/08/22 10:14:00;;;;;;;5.85;5.20;;;21.10;99.90;;;;;;5050960;28;20028;-50
2021/08/22 10:16:26;;;;;;;6.20;5.40;;;21.20;99.90;;;;;;5051111;28;20021;-46
2021/08/22 10:18:52;;;;;;;21.75;18.17;;;21.30;99.90;;;;;;5050762;28;20509;-48
2021/08/22 10:21:27;;;;;;;33.10;23.38;;;21.40;99.90;;;;;;5051338;28;20394;-49
2021/08/22 10:23:54;;;;;;;10.85;9.23;;;21.80;99.90;;;;;;5050628;28;20044;-47
2021/08/22 10:26:52;;;;;;;7.95;5.20;;;22.20;99.90;;;;;;5050603;28;20576;-50
2021/08/22 10:29:19;;;;;;;7.70;5.45;;;22.60;99.90;;;;;;5050666;28;20075;-52
2021/08/22 10:32:03;;;;;;;6.43;5.82;;;22.80;99.90;;;;;;5050910;28;20025;-48
2021/08/22 10:34:32;;;;;;;9.63;5.47;;;23.10;99.90;;;;;;5050868;28;20085;-50
2021/08/22 10:36:59;;;;;;;7.22;5.68;;;23.10;99.90;;;;;;5050485;28;20036;-46
2021/08/22 10:39:26;;;;;;;9.93;5.60;;;23.10;99.90;;;;;;5050625;28;20508;-48
2021/08/22 10:41:51;;;;;;;5.15;4.75;;;23.10;99.90;;;;;;5050606;28;20029;-49
2021/08/22 10:44:32;;;;;;;5.90;4.97;;;23.00;99.90;;;;;;5049954;28;20094;-49
2021/08/22 10:47:02;;;;;;;5.82;4.75;;;23.20;99.90;;;;;;5050346;28;20036;-48
2021/08/22 10:49:52;;;;;;;5.68;5.07;;;23.40;99.90;;;;;;5050455;28;20067;-47
2021/08/22 10:52:19;;;;;;;7.00;5.40;;;23.40;99.90;;;;;;5050767;28;20079;-50
2021/08/22 10:54:44;;;;;;;8.55;6.95;;;23.40;99.90;;;;;;5050520;28;20021;-49
2021/08/22 10:57:42;;;;;;;6.68;5.57;;;23.50;99.90;;;;;;5048793;28;20478;-52
2021/08/22 11:00:29;;;;;;;7.85;5.40;;;23.60;99.90;;;;;;5049083;28;20035;-50
2021/08/22 11:03:06;;;;;;;9.88;6.05;;;23.90;99.90;;;;;;5050309;28;20481;-46
2021/08/22 11:05:33;;;;;;;6.80;5.57;;;23.70;99.90;;;;;;5049021;28;20060;-46
2021/08/22 11:08:23;;;;;;;6.07;5.38;;;23.60;99.90;;;;;;5050326;28;20394;-47
2021/08/22 11:11:03;;;;;;;9.55;5.50;;;23.30;99.90;;;;;;5050593;28;20108;-47
2021/08/22 11:13:30;;;;;;;7.10;5.38;;;23.10;99.90;;;;;;5050388;28;20033;-48
2021/08/22 11:16:00;;;;;;;6.18;5.20;;;23.00;99.90;;;;;;5050266;28;20024;-51
2021/08/22 11:18:26;;;;;;;5.38;4.88;;;22.90;99.90;;;;;;5049798;28;20528;-50
2021/08/22 11:20:51;;;;;;;5.45;4.93;;;22.80;99.90;;;;;;5050079;28;20096;-48
2021/08/22 11:23:17;;;;;;;7.15;6.30;;;22.70;99.90;;;;;;5050194;28;20112;-52
2021/08/22 11:25:47;;;;;;;7.85;6.05;;;22.60;99.90;;;;;;5049634;28;20052;-49
2021/08/22 11:28:15;;;;;;;12.68;6.28;;;22.60;99.90;;;;;;5049745;28;20490;-51
2021/08/22 11:30:43;;;;;;;6.38;5.78;;;22.70;99.90;;;;;;5048720;28;20029;-50
2021/08/22 11:33:09;;;;;;;7.93;5.63;;;22.80;99.90;;;;;;5050235;28;20056;-49
2021/08/22 11:35:39;;;;;;;6.47;5.80;;;23.00;99.90;;;;;;5050197;28;20022;-51
2021/08/22 11:38:05;;;;;;;9.80;5.85;;;22.90;99.90;;;;;;5049966;28;20045;-50
2021/08/22 11:40:34;;;;;;;10.52;6.03;;;22.90;99.90;;;;;;5049853;28;20501;-51
2021/08/22 11:43:05;;;;;;;6.80;6.00;;;22.90;99.90;;;;;;5048804;28;20021;-50
2021/08/22 11:45:34;;;;;;;8.90;5.13;;;22.90;99.90;;;;;;5050199;28;20364;-47
2021/08/22 11:48:01;;;;;;;10.90;5.53;;;22.70;99.90;;;;;;5049843;28;20021;-51
2021/08/22 11:50:28;;;;;;;6.75;4.45;;;22.20;99.90;;;;;;5050072;28;20064;-49
2021/08/22 11:52:56;;;;;;;7.93;3.88;;;21.80;99.90;;;;;;5050106;28;20104;-48
2021/08/22 11:55:23;;;;;;;4.80;3.38;;;21.30;99.90;;;;;;5052629;28;20021;-51
2021/08/22 11:57:49;;;;;;;4.43;3.58;;;21.10;99.90;;;;;;5053473;28;20194;-51
2021/08/22 12:00:19;;;;;;;7.43;4.38;;;20.80;99.90;;;;;;5054047;28;20040;-46
2021/08/22 12:03:02;;;;;;;4.40;4.00;;;20.60;99.90;;;;;;5053694;28;20033;-47
2021/08/22 12:05:32;;;;;;;5.80;3.88;;;20.50;99.90;;;;;;5053472;28;20053;-49
2021/08/22 12:08:09;;;;;;;6.03;4.22;;;20.30;99.90;;;;;;5053311;28;20107;-51
2021/08/22 12:10:37;;;;;;;4.30;3.63;;;20.10;99.90;;;;;;5053395;28;20478;-48
2021/08/22 12:13:04;;;;;;;11.23;4.20;;;19.90;99.90;;;;;;5052555;28;20029;-50
2021/08/22 12:15:38;;;;;;;6.68;4.03;;;19.70;99.90;;;;;;5053665;28;20021;-53
2021/08/22 12:18:29;;;;;;;9.90;4.18;;;19.50;99.90;;;;;;5053047;28;20099;-50
2021/08/22 12:21:09;;;;;;;15.20;4.35;;;19.30;99.90;;;;;;5053814;28;20027;-47
2021/08/22 12:23:36;;;;;;;8.00;3.97;;;19.10;99.90;;;;;;5053618;28;20017;-47
2021/08/22 12:26:22;;;;;;;12.13;4.22;;;19.00;99.90;;;;;;5053315;28;20024;-48
2021/08/22 12:28:50;;;;;;;5.88;3.15;;;18.80;99.90;;;;;;5052871;28;20033;-51
2021/08/22 12:31:16;;;;;;;6.20;3.60;;;18.70;99.90;;;;;;5053219;28;20036;-50
2021/08/22 12:33:44;;;;;;;6.57;3.67;;;18.70;99.90;;;;;;5053424;28;20017;-46
2021/08/22 12:36:18;;;;;;;5.95;3.22;;;18.80;99.90;;;;;;5053220;28;20028;-51
2021/08/22 12:38:45;;;;;;;5.35;3.50;;;19.00;99.90;;;;;;5052845;28;20037;-48
2021/08/22 12:41:32;;;;;;;5.18;3.20;;;19.10;99.90;;;;;;5052984;28;20562;-53
2021/08/22 12:44:09;;;;;;;4.15;3.35;;;19.30;99.90;;;;;;5053148;28;20025;-51
2021/08/22 12:46:36;;;;;;;5.38;2.92;;;19.50;99.90;;;;;;5052900;28;20032;-52
2021/08/22 12:49:04;;;;;;;4.95;3.70;;;19.70;99.90;;;;;;5052371;28;20044;-47
2021/08/22 12:51:30;;;;;;;5.00;3.05;;;19.70;99.90;;;;;;5053263;28;20074;-47
2021/08/22 12:53:56;;;;;;;4.85;2.67;;;19.70;99.90;;;;;;5052765;28;20024;-46
2021/08/22 12:56:22;;;;;;;4.55;2.80;;;19.80;99.90;;;;;;5053005;28;20036;-46
2021/08/22 12:58:49;;;;;;;10.27;3.47;;;19.80;99.90;;;;;;5052896;28;20024;-46